createdAt,value
2018-06-08T00:15:19.780Z,98033.78
2018-06-08T00:35:45.839Z,98030.77
2018-06-08T00:56:37.391Z,98023.80
2018-06-08T01:17:15.736Z,98014.72
2018-06-08T01:37:55.924Z,98000.42
2018-06-08T01:58:26.897Z,98015.58
2018-06-08T02:19:07.395Z,98009.00
2018-06-08T02:39:45.736Z,98015.02
2018-06-08T03:00:25.925Z,98011.59
2018-06-08T03:21:01.202Z,98006.42
2018-06-08T03:41:44.456Z,98008.68
2018-06-08T04:02:27.442Z,98024.45
2018-06-08T04:23:01.240Z,98045.17
2018-06-08T04:43:40.104Z,98047.63
2018-06-08T05:04:17.526Z,98053.29
2018-06-08T05:24:58.946Z,98054.73
2018-06-08T05:45:42.359Z,98065.62
2018-06-08T06:06:23.312Z,98070.41
2018-06-08T06:26:57.666Z,98064.45
2018-06-08T06:47:41.545Z,98078.23
2018-06-08T07:08:23.260Z,98084.67
2018-06-08T07:29:03.452Z,98085.79
2018-06-08T07:49:36.882Z,98078.20
2018-06-08T08:10:17.259Z,98084.26
2018-06-08T08:30:58.178Z,98068.33
2018-06-08T08:51:38.374Z,98068.98
2018-06-08T09:12:21.280Z,98042.17
2018-06-08T09:33:03.996Z,98033.63
2018-06-08T09:53:47.530Z,98008.25
2018-06-08T10:14:25.876Z,98000.12
2018-06-08T10:35:10.058Z,97993.78
2018-06-08T10:55:57.311Z,97986.38
2018-06-08T11:16:36.943Z,97971.98
2018-06-08T11:37:10.941Z,97936.88
2018-06-08T11:57:47.121Z,97918.23
2018-06-08T12:18:25.466Z,97900.08
2018-06-08T12:39:02.583Z,97892.80
2018-06-08T12:59:35.096Z,97886.84
2018-06-08T13:20:13.126Z,97912.87
2018-06-08T13:40:52.393Z,97904.38
2018-06-08T14:01:30.095Z,97918.64
2018-06-08T14:22:11.849Z,97881.67
2018-06-08T14:42:46.201Z,97868.11
2018-06-08T15:03:12.255Z,97842.26
2018-06-08T15:23:54.594Z,97832.45
2018-06-08T15:44:36.008Z,97835.33
2018-06-08T16:05:15.277Z,97823.34
2018-06-08T16:46:27.888Z,97805.19
2018-06-08T17:07:05.372Z,97819.49
2018-06-08T17:27:44.986Z,97849.83
2018-06-08T18:09:38.494Z,97880.58
2018-06-08T18:30:15.332Z,97883.05
2018-06-08T18:50:57.670Z,97877.80
2018-06-08T19:11:42.160Z,97883.48
2018-06-08T19:32:21.115Z,97912.80
2018-06-08T19:53:00.387Z,97924.66
2018-06-08T20:13:41.807Z,97968.28
2018-06-08T20:34:17.998Z,97958.69
2018-06-08T20:54:53.266Z,97928.80
2018-06-08T21:15:32.531Z,97932.37
2018-06-08T21:36:11.500Z,97934.00
2018-06-08T21:56:51.066Z,97932.62
2018-06-08T22:17:31.253Z,97932.33
2018-06-08T22:38:10.522Z,97931.58
2018-06-08T22:58:44.874Z,97920.73
2018-06-08T23:19:28.127Z,97922.13
2018-06-08T23:40:07.670Z,97901.58
